Betancuria — EAMH — position and weather

sailwx.info

Track history (hours):
 
Tides and Currents Weather Stations Pressure Air Temp Water Temp Dewpoint Dewpoint Depression Visibility Wind Speed Wind Dir Waves Ship Positions

Betancuria

Last reported at 2017-Feb-16 19:33 UTC. Time now 2017-Feb-21 17:25 UTC.
Position N 50°01' E 000°09'.

Length 141 m; draft 4.7 m.

Type: Ship. MMSI: 224471000.

Date/timePositionNaut miles runAvg speedWind from/ knotsBaromVisibWave heightAir tempDewpointWater temp
2017-Feb-16 19:33N 50°01' E 000°09'9 9.4
2017-Feb-16 18:33N 50°01' W 000°05'9 9.4
2017-Feb-16 17:33N 49°60' W 000°20'9 9.4
2017-Feb-16 16:33N 49°59' W 000°35'11 9.7
2017-Feb-16 15:27N 49°58' W 000°51'910.7
2017-Feb-16 14:33N 49°57' W 001°06'1211.8
2017-Feb-16 13:33N 49°56' W 001°24'1313.1
2017-Feb-16 12:33N 49°55' W 001°45'5513.3
2017-Feb-16 08:27N 49°43' W 003°07'9410.5
2017-Feb-15 23:31N 48°56' W 005°12'1010.0
2017-Feb-15 22:33N 48°51' W 005°25'4411.0
2017-Feb-15 18:33N 48°15' W 006°02'  
2017-Feb-13 13:32N 39°18' W 009°50'1010.4
2017-Feb-13 12:33N 39°08' W 009°50'1010.2
2017-Feb-13 11:33N 38°58' W 009°50'1010.2
2017-Feb-13 10:33N 38°48' W 009°51'10 9.9
2017-Feb-13 09:33N 38°38' W 009°49'1010.2
2017-Feb-13 08:33N 38°28' W 009°46'1010.2
2017-Feb-13 07:33N 38°18' W 009°43'240 7.9
2017-Feb-12 01:22N 35°58' W 005°39'810.0
2017-Feb-12 00:33N 36°00' W 005°29'8 7.5
2017-Feb-11 23:33N 36°06' W 005°24'3 2.7
2017-Feb-11 22:31N 36°08' W 005°26'0 0.0
2017-Feb-11 21:31N 36°08' W 005°26'0 0.0
2017-Feb-11 20:31N 36°08' W 005°26'0 0.0
2017-Feb-11 19:31N 36°08' W 005°26'0 0.0
2017-Feb-11 18:31N 36°08' W 005°26'0 0.0
2017-Feb-11 17:31N 36°08' W 005°26'0 0.0
2017-Feb-11 16:31N 36°08' W 005°26'0 0.1
2017-Feb-11 15:33N 36°09' W 005°26'4 4.1
2017-Feb-11 14:34N 36°06' W 005°22'10 9.9
2017-Feb-11 13:32N 36°08' W 005°10'  
Track history (hours):
 
Tides and Currents Weather Stations Pressure Air Temp Water Temp Dewpoint Dewpoint Depression Visibility Wind Speed Wind Dir Waves Ship Positions

Betancuria

Last reported at 2017-Feb-16 19:33 UTC. Time now 2017-Feb-21 17:25 UTC.
Position N 50°01' E 000°09'.

Length 141 m; draft 4.7 m.

Type: Ship. MMSI: 224471000.

Date/timePositionNaut miles runAvg speedWind from/ knotsBaromVisibWave heightAir tempDewpointWater temp
2017-Feb-16 19:33N 50°01' E 000°09'9 9.4
2017-Feb-16 18:33N 50°01' W 000°05'9 9.4
2017-Feb-16 17:33N 49°60' W 000°20'9 9.4
2017-Feb-16 16:33N 49°59' W 000°35'11 9.7
2017-Feb-16 15:27N 49°58' W 000°51'910.7
2017-Feb-16 14:33N 49°57' W 001°06'1211.8
2017-Feb-16 13:33N 49°56' W 001°24'1313.1
2017-Feb-16 12:33N 49°55' W 001°45'5513.3
2017-Feb-16 08:27N 49°43' W 003°07'9410.5
2017-Feb-15 23:31N 48°56' W 005°12'1010.0
2017-Feb-15 22:33N 48°51' W 005°25'4411.0
2017-Feb-15 18:33N 48°15' W 006°02'  
2017-Feb-13 13:32N 39°18' W 009°50'1010.4
2017-Feb-13 12:33N 39°08' W 009°50'1010.2
2017-Feb-13 11:33N 38°58' W 009°50'1010.2
2017-Feb-13 10:33N 38°48' W 009°51'10 9.9
2017-Feb-13 09:33N 38°38' W 009°49'1010.2
2017-Feb-13 08:33N 38°28' W 009°46'1010.2
2017-Feb-13 07:33N 38°18' W 009°43'240 7.9
2017-Feb-12 01:22N 35°58' W 005°39'810.0
2017-Feb-12 00:33N 36°00' W 005°29'8 7.5
2017-Feb-11 23:33N 36°06' W 005°24'3 2.7
2017-Feb-11 22:31N 36°08' W 005°26'0 0.0
2017-Feb-11 21:31N 36°08' W 005°26'0 0.0
2017-Feb-11 20:31N 36°08' W 005°26'0 0.0
2017-Feb-11 19:31N 36°08' W 005°26'0 0.0
2017-Feb-11 18:31N 36°08' W 005°26'0 0.0
2017-Feb-11 17:31N 36°08' W 005°26'0 0.0
2017-Feb-11 16:31N 36°08' W 005°26'0 0.1
2017-Feb-11 15:33N 36°09' W 005°26'4 4.1
2017-Feb-11 14:34N 36°06' W 005°22'10 9.9
2017-Feb-11 13:32N 36°08' W 005°10'  

Dump ship's entire track history